This is the latest recevied weather packets stored in our database for station/object OK1FET-4. If no packets are shown the sender has not sent any weather packets the latest 1 day(s).
| Time | Temp. | Humidity | Pressure | Rain* | Wind** | Luminosity | Snow |
|---|---|---|---|---|---|---|---|
| 1778022126 | 12.78° C | 96% | 1007.2 hPa | - | 1.34 m/s, 138° | - | - |
| 1778022126 | 12.78° C | 96% | 1007.2 hPa | - | 1.34 m/s, 138° | - | - |
| 1778022126 | 12.78° C | 96% | 1007.2 hPa | - | 1.34 m/s, 138° | - | - |
| 1778021826 | 12.78° C | 95% | 1007.3 hPa | - | 1.34 m/s, 138° | - | - |
| 1778021826 | 12.78° C | 95% | 1007.3 hPa | - | 1.34 m/s, 138° | - | - |
| 1778021826 | 12.78° C | 95% | 1007.3 hPa | - | 1.34 m/s, 138° | - | - |
| 1778021526 | 12.78° C | 95% | 1007.5 hPa | - | 1.34 m/s, 145° | - | - |
| 1778021526 | 12.78° C | 95% | 1007.5 hPa | - | 1.34 m/s, 145° | - | - |
| 1778021526 | 12.78° C | 95% | 1007.5 hPa | - | 1.34 m/s, 145° | - | - |
| 1778021225 | 12.78° C | 95% | 1007.6 hPa | - | 1.34 m/s, 149° | - | - |
| 1778021225 | 12.78° C | 95% | 1007.6 hPa | - | 1.34 m/s, 149° | - | - |
| 1778021225 | 12.78° C | 95% | 1007.6 hPa | - | 1.34 m/s, 149° | - | - |
| 1778020925 | 12.78° C | 95% | 1007.4 hPa | - | 0.89 m/s, 168° | - | - |
| 1778020925 | 12.78° C | 95% | 1007.4 hPa | - | 0.89 m/s, 168° | - | - |
| 1778020925 | 12.78° C | 95% | 1007.4 hPa | - | 0.89 m/s, 168° | - | - |
| 1778020625 | 12.78° C | 95% | 1007.2 hPa | - | 0.89 m/s, 223° | - | - |
| 1778020625 | 12.78° C | 95% | 1007.2 hPa | - | 0.89 m/s, 223° | - | - |
| 1778020625 | 12.78° C | 95% | 1007.2 hPa | - | 0.89 m/s, 223° | - | - |
| 1778020324 | 12.78° C | 95% | 1007.2 hPa | - | 1.34 m/s, 235° | - | - |
| 1778020324 | 12.78° C | 95% | 1007.2 hPa | - | 1.34 m/s, 235° | - | - |
| 1778020324 | 12.78° C | 95% | 1007.2 hPa | - | 1.34 m/s, 235° | - | - |
| 1778020024 | 12.78° C | 95% | 1007.3 hPa | - | 1.34 m/s, 239° | - | - |
| 1778020024 | 12.78° C | 95% | 1007.3 hPa | - | 1.34 m/s, 239° | - | - |
| 1778020024 | 12.78° C | 95% | 1007.3 hPa | - | 1.34 m/s, 239° | - | - |
| 1778019724 | 12.78° C | 95% | 1007.4 hPa | - | 1.34 m/s, 256° | - | - |
* Rain since midnight (hover to see other rain measurements)
** Current wind speed in m/s (hover to see current wind gust speed)